createdAt,value
2023-02-03T00:00:54.502Z,97386.00
2023-02-03T00:03:34.164Z,97390.31
2023-02-03T00:06:11.831Z,97383.38
2023-02-03T00:08:40.353Z,97387.69
2023-02-03T00:11:09.018Z,97381.47
2023-02-03T00:13:37.700Z,97374.47
2023-02-03T00:16:07.623Z,97384.84
2023-02-03T00:18:37.347Z,97374.34
2023-02-03T00:21:06.125Z,97378.56
2023-02-03T00:23:35.159Z,97381.09
2023-02-03T00:26:09.417Z,97384.44
2023-02-03T00:28:38.176Z,97392.16
2023-02-03T00:31:06.981Z,97388.81
2023-02-03T00:33:35.381Z,97393.03
2023-02-03T00:36:08.042Z,97386.81
2023-02-03T00:38:36.347Z,97388.50
2023-02-03T00:41:04.715Z,97387.56
2023-02-03T00:43:33.085Z,97384.81
2023-02-03T00:46:01.478Z,97399.50
2023-02-03T00:48:30.519Z,97391.63
2023-02-03T00:50:58.880Z,97391.53
2023-02-03T00:53:28.502Z,97397.59
2023-02-03T00:55:56.974Z,97400.97
2023-02-03T00:58:25.324Z,97386.91
2023-02-03T01:00:55.822Z,97392.97
2023-02-03T01:03:24.307Z,97397.41
2023-02-03T01:05:52.662Z,97388.59
2023-02-03T01:08:21.021Z,97392.16
2023-02-03T01:10:50.787Z,97402.66
2023-02-03T01:13:19.359Z,97392.06
2023-02-03T01:15:48.866Z,97391.22
2023-02-03T01:18:17.153Z,97393.72
2023-02-03T01:20:48.168Z,97381.56
2023-02-03T01:23:16.490Z,97389.31
2023-02-03T01:25:44.884Z,97375.34
2023-02-03T01:28:14.819Z,97384.81
2023-02-03T01:30:43.316Z,97375.16
2023-02-03T01:33:11.719Z,97386.47
2023-02-03T01:35:40.057Z,97378.38
2023-02-03T01:38:08.741Z,97378.28
2023-02-03T01:40:46.326Z,97377.94
2023-02-03T01:46:19.604Z,97373.41
2023-02-03T01:48:48.027Z,97363.75
2023-02-03T01:51:16.569Z,97382.75
2023-02-03T01:53:45.626Z,97348.53
2023-02-03T01:56:14.003Z,97339.81
2023-02-03T01:58:43.582Z,97352.81
2023-02-03T02:01:13.368Z,97357.97
2023-02-03T02:03:46.069Z,97359.66
2023-02-03T02:06:15.674Z,97365.81
2023-02-03T02:08:49.352Z,97364.78
2023-02-03T02:11:18.552Z,97362.88
2023-02-03T02:13:48.633Z,97351.44
2023-02-03T02:16:26.850Z,97362.66
2023-02-03T02:19:11.000Z,97362.53
2023-02-03T02:22:07.453Z,97350.16
2023-02-03T02:25:00.451Z,97341.19
2023-02-03T02:27:57.796Z,97327.97
2023-02-03T02:30:56.183Z,97336.56
2023-02-03T02:33:37.991Z,97334.66
2023-02-03T02:36:14.713Z,97338.16
2023-02-03T02:38:51.641Z,97338.00
2023-02-03T02:41:25.899Z,97337.06
2023-02-03T02:44:02.440Z,97338.63
2023-02-03T02:46:36.182Z,97349.03
2023-02-03T02:49:12.100Z,97349.75
2023-02-03T02:51:43.852Z,97341.75
2023-02-03T02:54:17.374Z,97348.47
2023-02-03T02:56:49.608Z,97349.41
2023-02-03T02:59:18.068Z,97345.84
2023-02-03T03:01:46.542Z,97356.22
2023-02-03T03:04:23.224Z,97350.00
2023-02-03T03:06:57.141Z,97348.25
2023-02-03T03:09:29.712Z,97357.16
2023-02-03T03:12:07.752Z,97364.94
2023-02-03T03:14:42.429Z,97358.75
2023-02-03T03:17:14.706Z,97354.44
2023-02-03T03:19:51.494Z,97364.94
2023-02-03T03:22:25.731Z,97353.09
2023-02-03T03:24:59.431Z,97349.75
2023-02-03T03:27:33.455Z,97342.94
2023-02-03T03:30:06.313Z,97337.19
2023-02-03T03:32:35.000Z,97344.22
2023-02-03T03:35:07.510Z,97341.59
2023-02-03T03:37:39.280Z,97338.00
2023-02-03T03:40:11.835Z,97341.34
2023-02-03T03:42:55.924Z,97346.50
2023-02-03T03:45:28.236Z,97360.47
2023-02-03T03:48:12.630Z,97380.53
2023-02-03T03:50:47.016Z,97366.31
2023-02-03T03:53:18.285Z,97345.09
2023-02-03T03:55:49.873Z,97352.03
2023-02-03T03:58:23.248Z,97330.19
2023-02-03T04:00:52.448Z,97338.06
2023-02-03T04:03:25.024Z,97337.13
2023-02-03T04:05:54.897Z,97328.28
2023-02-03T04:08:26.104Z,97350.25
2023-02-03T04:10:54.439Z,97337.22
2023-02-03T04:13:22.841Z,97325.50
2023-02-03T04:15:51.382Z,97334.66
2023-02-03T04:18:20.544Z,97322.00
2023-02-03T04:20:48.896Z,97316.38
2023-02-03T04:23:18.625Z,97339.38
2023-02-03T04:25:46.948Z,97321.94
2023-02-03T04:28:15.376Z,97332.44
2023-02-03T04:30:43.902Z,97325.53
2023-02-03T04:33:12.259Z,97328.97
2023-02-03T04:35:40.608Z,97321.94
2023-02-03T04:38:08.956Z,97327.91
2023-02-03T04:40:38.671Z,97343.66
2023-02-03T04:43:08.734Z,97328.63
2023-02-03T04:45:37.157Z,97339.13
2023-02-03T04:48:05.985Z,97347.72
2023-02-03T04:50:34.581Z,97346.69
2023-02-03T04:53:02.981Z,97338.72
2023-02-03T04:55:31.331Z,97322.97
2023-02-03T04:58:01.788Z,97309.69
2023-02-03T05:00:30.848Z,97309.59
2023-02-03T05:02:59.343Z,97325.25
2023-02-03T05:05:27.773Z,97336.81
2023-02-03T05:07:58.074Z,97342.53
2023-02-03T05:10:26.935Z,97361.63
2023-02-03T05:12:55.522Z,97369.31
2023-02-03T05:15:25.221Z,97373.59
2023-02-03T05:17:56.843Z,97363.69
2023-02-03T05:20:25.672Z,97375.66
2023-02-03T05:22:54.282Z,97372.09
2023-02-03T05:25:22.620Z,97370.41
2023-02-03T05:27:56.356Z,97381.88
2023-02-03T05:30:26.849Z,97381.03
2023-02-03T05:32:55.387Z,97375.78
2023-02-03T05:35:24.393Z,97366.94
2023-02-03T05:37:52.689Z,97365.16
2023-02-03T05:40:39.021Z,97366.84
2023-02-03T05:43:07.818Z,97372.09
2023-02-03T05:45:37.580Z,97369.34
2023-02-03T05:48:07.406Z,97360.66
2023-02-03T05:50:38.610Z,97344.91
2023-02-03T05:53:08.469Z,97340.47
2023-02-03T05:55:37.905Z,97344.75
2023-02-03T05:58:06.301Z,97336.88
2023-02-03T06:00:34.770Z,97339.50
2023-02-03T06:03:05.227Z,97348.25
2023-02-03T06:05:35.713Z,97350.00
2023-02-03T06:08:04.337Z,97343.94
2023-02-03T06:10:32.687Z,97345.72
2023-02-03T06:13:01.146Z,97350.00
2023-02-03T06:15:29.490Z,97355.97
2023-02-03T06:17:57.899Z,97350.72
2023-02-03T06:20:50.827Z,97361.22
2023-02-03T06:23:19.997Z,97373.53
2023-02-03T06:25:50.029Z,97369.13
2023-02-03T06:28:18.439Z,97361.22
2023-02-03T06:30:47.010Z,97366.50
2023-02-03T06:33:15.354Z,97357.44
2023-02-03T06:35:43.768Z,97364.47
2023-02-03T06:38:13.502Z,97389.81
2023-02-03T06:40:41.916Z,97382.75
2023-02-03T06:43:10.239Z,97368.69
2023-02-03T06:45:38.616Z,97384.44
2023-02-03T06:48:07.663Z,97379.28
2023-02-03T06:50:36.033Z,97386.22
2023-02-03T06:53:04.540Z,97383.47
2023-02-03T06:55:34.449Z,97379.19
2023-02-03T06:58:02.819Z,97380.97
2023-02-03T07:00:31.518Z,97385.28
2023-02-03T07:03:01.448Z,97385.38
2023-02-03T07:05:29.879Z,97376.56
2023-02-03T07:07:59.094Z,97378.22
2023-02-03T07:10:27.717Z,97386.94
2023-02-03T07:13:03.909Z,97387.06
2023-02-03T07:15:32.411Z,97385.38
2023-02-03T07:18:00.746Z,97385.38
2023-02-03T07:20:30.153Z,97390.63
2023-02-03T07:22:59.640Z,97393.16
2023-02-03T07:25:28.353Z,97400.19
2023-02-03T07:27:58.378Z,97391.47
2023-02-03T07:30:27.127Z,97387.06
2023-02-03T07:32:55.716Z,97389.56
2023-02-03T07:35:24.063Z,97390.41
2023-02-03T07:37:52.496Z,97390.41
2023-02-03T07:40:21.381Z,97388.50
2023-02-03T07:43:00.147Z,97388.28
2023-02-03T07:45:28.695Z,97382.81
2023-02-03T07:47:57.077Z,97374.69
2023-02-03T07:50:25.572Z,97374.50
2023-02-03T07:52:55.557Z,97355.16
2023-02-03T07:55:24.045Z,97348.94
2023-02-03T07:57:54.375Z,97339.25
2023-02-03T08:00:25.765Z,97334.63
2023-02-03T08:02:54.758Z,97352.06
2023-02-03T08:05:23.121Z,97334.50
2023-02-03T08:07:51.523Z,97336.19
2023-02-03T08:10:20.632Z,97319.47
2023-02-03T08:12:49.035Z,97341.19
2023-02-03T08:15:17.470Z,97343.72
2023-02-03T08:17:47.240Z,97323.41
2023-02-03T08:20:16.663Z,97327.59
2023-02-03T08:22:45.016Z,97329.28
2023-02-03T08:25:13.517Z,97309.09
2023-02-03T08:27:46.017Z,97301.09
2023-02-03T08:30:15.461Z,97293.09
2023-02-03T08:32:43.877Z,97298.97
2023-02-03T08:35:13.794Z,97302.06
2023-02-03T08:37:42.439Z,97312.44
2023-02-03T08:40:12.798Z,97315.91
2023-02-03T08:42:41.158Z,97331.56
2023-02-03T08:45:10.365Z,97327.75
2023-02-03T08:47:39.380Z,97337.31
2023-02-03T08:50:09.806Z,97344.00
2023-02-03T08:52:40.619Z,97349.00
2023-02-03T08:55:09.579Z,97361.94
2023-02-03T08:57:39.988Z,97377.50
2023-02-03T09:00:09.923Z,97369.34
2023-02-03T09:02:38.348Z,97373.53
2023-02-03T09:05:07.501Z,97352.38
2023-02-03T09:07:35.922Z,97360.97
2023-02-03T09:10:06.309Z,97358.13
2023-02-03T09:12:34.909Z,97349.88
2023-02-03T09:15:03.238Z,97366.13
2023-02-03T09:17:31.559Z,97357.16
2023-02-03T09:20:00.874Z,97362.19
2023-02-03T09:22:29.198Z,97349.75
2023-02-03T09:24:57.729Z,97343.41
2023-02-03T09:27:29.169Z,97336.13
2023-02-03T09:29:58.522Z,97336.84
2023-02-03T09:32:28.525Z,97336.72
2023-02-03T09:34:58.687Z,97333.97
2023-02-03T09:37:30.435Z,97338.97
2023-02-03T09:39:59.456Z,97346.63
2023-02-03T09:42:52.977Z,97338.63
2023-02-03T09:45:27.234Z,97339.34
2023-02-03T09:48:01.773Z,97352.38
2023-02-03T09:50:33.195Z,97338.25
2023-02-03T09:53:08.036Z,97340.66
2023-02-03T09:55:40.871Z,97335.00
2023-02-03T09:58:13.545Z,97325.06
2023-02-03T10:00:44.704Z,97300.19
2023-02-03T10:03:24.799Z,97332.34
2023-02-03T10:06:13.786Z,97337.25
2023-02-03T10:08:59.766Z,97319.53
2023-02-03T10:11:46.639Z,97322.16
2023-02-03T10:14:33.966Z,97301.81
2023-02-03T10:17:13.285Z,97305.16
2023-02-03T10:19:47.636Z,97298.94
2023-02-03T10:22:19.889Z,97302.16
2023-02-03T10:24:51.820Z,97299.41
2023-02-03T10:27:23.473Z,97295.69
2023-02-03T10:29:59.236Z,97318.28
2023-02-03T10:32:28.669Z,97319.69
2023-02-03T10:34:59.182Z,97308.09
2023-02-03T10:37:32.257Z,97310.59
2023-02-03T10:40:02.901Z,97311.31
2023-02-03T10:42:53.275Z,97308.41
2023-02-03T10:45:23.296Z,97312.03
2023-02-03T10:47:54.679Z,97325.19
2023-02-03T10:50:31.566Z,97303.97
2023-02-03T10:53:23.301Z,97307.31
2023-02-03T10:56:01.938Z,97297.66
2023-02-03T10:58:33.410Z,97295.72
2023-02-03T11:01:11.755Z,97285.88
2023-02-03T11:03:43.419Z,97282.16
2023-02-03T11:06:13.825Z,97283.84
2023-02-03T11:08:44.164Z,97264.44
2023-02-03T11:11:16.907Z,97270.53
2023-02-03T11:13:45.594Z,97276.53
2023-02-03T11:16:18.336Z,97286.78
2023-02-03T11:18:56.403Z,97289.19
2023-02-03T11:21:31.503Z,97297.50
2023-02-03T11:24:05.975Z,97294.63
2023-02-03T11:26:43.906Z,97306.00
2023-02-03T11:29:22.775Z,97293.66
2023-02-03T11:31:56.327Z,97287.44
2023-02-03T11:34:28.213Z,97274.38
2023-02-03T11:36:57.095Z,97267.31
2023-02-03T11:39:28.542Z,97276.19
2023-02-03T11:41:57.772Z,97280.47
2023-02-03T11:44:29.599Z,97281.47
2023-02-03T11:47:03.375Z,97263.97
2023-02-03T11:50:05.390Z,97270.09
2023-02-03T11:53:10.982Z,97251.06
2023-02-03T11:55:53.342Z,97246.03
2023-02-03T11:58:44.501Z,97246.31
2023-02-03T12:01:21.289Z,97246.44
2023-02-03T12:04:13.265Z,97242.28
2023-02-03T12:06:56.026Z,97233.63
2023-02-03T12:09:32.790Z,97233.78
2023-02-03T12:12:26.200Z,97225.75
2023-02-03T12:15:08.003Z,97217.72
2023-02-03T12:17:51.887Z,97214.84
2023-02-03T12:20:40.512Z,97212.91
2023-02-03T12:23:20.446Z,97221.63
2023-02-03T12:26:01.872Z,97219.97
2023-02-03T12:28:43.217Z,97212.31
2023-02-03T12:31:17.576Z,97210.66
2023-02-03T12:33:51.872Z,97207.28
2023-02-03T12:36:26.007Z,97214.50
2023-02-03T12:38:58.161Z,97198.84
2023-02-03T12:41:30.604Z,97200.63
2023-02-03T12:44:05.223Z,97193.56
2023-02-03T12:46:41.731Z,97178.84
2023-02-03T12:49:16.673Z,97165.25
2023-02-03T12:51:50.995Z,97170.66
2023-02-03T12:54:34.339Z,97162.88
2023-02-03T12:57:17.169Z,97162.03
2023-02-03T12:59:58.883Z,97158.59
2023-02-03T13:02:31.484Z,97155.22
2023-02-03T13:05:06.667Z,97145.06
2023-02-03T13:07:42.609Z,97126.78
2023-02-03T13:10:20.688Z,97120.69
2023-02-03T13:12:52.677Z,97118.16
2023-02-03T13:15:27.561Z,97108.88
2023-02-03T13:18:04.975Z,97121.19
2023-02-03T13:20:37.202Z,97107.34
2023-02-03T13:23:10.569Z,97097.50
2023-02-03T13:25:53.565Z,97088.09
2023-02-03T13:28:35.751Z,97086.41
2023-02-03T13:31:31.810Z,97091.78
2023-02-03T13:34:41.515Z,97090.97
2023-02-03T13:37:29.138Z,97078.63
2023-02-03T13:40:15.468Z,97084.72
2023-02-03T13:42:49.475Z,97071.56
2023-02-03T13:45:26.435Z,97065.47
2023-02-03T13:47:58.338Z,97070.84
2023-02-03T13:50:29.872Z,97066.56
2023-02-03T13:53:02.196Z,97057.69
2023-02-03T13:55:36.992Z,97052.19
2023-02-03T13:58:08.378Z,97031.13
2023-02-03T14:01:07.591Z,97018.19
2023-02-03T14:03:45.663Z,97029.00
2023-02-03T14:07:00.012Z,97030.66
2023-02-03T14:09:39.721Z,97020.13
2023-02-03T14:12:21.238Z,97017.50
2023-02-03T14:15:22.297Z,97016.44
2023-02-03T14:18:00.242Z,97016.44
2023-02-03T14:20:55.270Z,97018.91
2023-02-03T14:23:44.630Z,97012.81
2023-02-03T14:26:24.192Z,97005.91
2023-02-03T14:28:54.235Z,97004.09
2023-02-03T14:31:23.917Z,96989.13
2023-02-03T14:33:57.385Z,96974.16
2023-02-03T14:36:36.030Z,96958.22
2023-02-03T14:39:22.578Z,96954.91
2023-02-03T14:41:57.493Z,96960.84
2023-02-03T14:44:37.340Z,96954.66
2023-02-03T14:47:16.782Z,96962.53
2023-02-03T14:50:02.838Z,96966.00
2023-02-03T14:52:54.938Z,96979.16
2023-02-03T14:55:49.426Z,96971.25
2023-02-03T14:58:27.437Z,96971.25
2023-02-03T15:00:57.892Z,96956.28
2023-02-03T15:03:30.309Z,96951.03
2023-02-03T15:06:03.231Z,96947.56
2023-02-03T15:08:44.158Z,96942.31
2023-02-03T15:11:31.291Z,96941.47
2023-02-03T15:14:25.037Z,96932.75
2023-02-03T15:17:00.193Z,96911.81
2023-02-03T15:19:30.763Z,96918.88
2023-02-03T15:21:59.278Z,96908.34
2023-02-03T15:24:27.627Z,96921.50
2023-02-03T15:26:57.406Z,96911.97
2023-02-03T15:29:32.153Z,96917.22
2023-02-03T15:32:13.841Z,96915.28
2023-02-03T15:34:45.767Z,96910.16
2023-02-03T15:37:20.157Z,96908.22
2023-02-03T15:39:56.943Z,96907.38
2023-02-03T15:42:31.135Z,96920.41
2023-02-03T15:45:04.878Z,96924.88
2023-02-03T15:47:36.978Z,96943.28
2023-02-03T15:50:23.394Z,96948.56
2023-02-03T15:52:53.859Z,96958.09
2023-02-03T15:55:33.307Z,96966.00
2023-02-03T15:58:03.943Z,96968.50
2023-02-03T16:00:36.475Z,96955.22
2023-02-03T16:03:16.445Z,96941.06
2023-02-03T16:05:48.720Z,96939.25
2023-02-03T16:08:37.496Z,96934.84
2023-02-03T16:11:25.347Z,96937.47
2023-02-03T16:13:55.450Z,96933.88
2023-02-03T16:16:26.510Z,96925.84
2023-02-03T16:18:58.843Z,96931.09
2023-02-03T16:21:31.008Z,96921.41
2023-02-03T16:24:00.157Z,96919.34
2023-02-03T16:26:30.220Z,96919.19
2023-02-03T16:29:33.161Z,96941.91
2023-02-03T16:32:19.570Z,96918.09
2023-02-03T16:35:06.791Z,96903.16
2023-02-03T16:38:01.942Z,96913.69
2023-02-03T16:40:47.987Z,96928.50
2023-02-03T16:43:35.137Z,96914.09
2023-02-03T16:46:21.058Z,96922.81
2023-02-03T16:49:06.986Z,96939.47
2023-02-03T16:51:40.930Z,96954.97
2023-02-03T16:54:14.065Z,96964.56
2023-02-03T16:56:42.492Z,96982.72
2023-02-03T16:59:10.978Z,97011.56
2023-02-03T17:01:39.422Z,97035.84
2023-02-03T17:04:08.226Z,97026.69
2023-02-03T17:06:40.101Z,97024.63
2023-02-03T17:09:08.564Z,97035.97
2023-02-03T17:11:36.891Z,97036.16
2023-02-03T17:14:05.321Z,97037.66
2023-02-03T17:16:33.824Z,97048.34
2023-02-03T17:19:02.217Z,97031.69
2023-02-03T17:21:31.676Z,97030.03
2023-02-03T17:24:09.880Z,97036.97
2023-02-03T17:26:38.254Z,97025.59
2023-02-03T17:29:06.824Z,97044.88
2023-02-03T17:31:35.178Z,97031.81
2023-02-03T17:34:03.508Z,97019.63
2023-02-03T17:36:31.858Z,97019.78
2023-02-03T17:55:34.165Z,97030.25
2023-02-03T17:58:03.984Z,97039.75
2023-02-03T18:00:32.688Z,97037.78
2023-02-03T18:03:01.167Z,97039.53
2023-02-03T18:05:29.913Z,97042.94
2023-02-03T18:08:03.109Z,97039.16
2023-02-03T18:10:37.591Z,97029.28
2023-02-03T18:13:07.388Z,97037.34
2023-02-03T18:15:37.829Z,97042.84
2023-02-03T18:18:06.542Z,97032.72
2023-02-03T18:20:35.047Z,97047.81
2023-02-03T18:23:06.157Z,97026.16
2023-02-03T18:25:36.632Z,97040.53
2023-02-03T18:28:05.353Z,97030.50
2023-02-03T18:30:37.678Z,97042.41
2023-02-03T18:33:06.079Z,97061.88
2023-02-03T18:35:34.644Z,97045.53
2023-02-03T18:38:03.015Z,97042.31
2023-02-03T18:40:33.471Z,97027.03
2023-02-03T18:43:02.358Z,97009.16
2023-02-03T18:45:34.242Z,97015.50
2023-02-03T18:48:03.926Z,97003.44
2023-02-03T18:50:32.571Z,96999.16
2023-02-03T18:53:01.094Z,96963.56
2023-02-03T18:55:29.382Z,96913.88
2023-02-03T18:57:57.865Z,96932.38
2023-02-03T19:00:26.518Z,96916.78
2023-02-03T19:02:55.478Z,96926.31
2023-02-03T19:05:25.286Z,96924.50
2023-02-03T19:07:53.609Z,96922.84
2023-02-03T19:10:21.961Z,96913.03
2023-02-03T19:12:50.350Z,96925.25
2023-02-03T19:15:19.331Z,96969.78
2023-02-03T19:17:49.280Z,96954.69
2023-02-03T19:20:17.830Z,96971.34
2023-02-03T19:22:47.585Z,96963.16
2023-02-03T19:25:15.972Z,96994.47
2023-02-03T19:27:44.386Z,96944.41
2023-02-03T19:30:13.592Z,96908.31
2023-02-03T19:32:43.334Z,96929.47
2023-02-03T19:35:13.729Z,96922.41
2023-02-03T19:37:42.499Z,96928.47
2023-02-03T19:40:13.020Z,96924.19
2023-02-03T19:42:42.957Z,96912.00
2023-02-03T19:45:12.709Z,96941.91
2023-02-03T19:47:41.308Z,96948.22
2023-02-03T19:50:11.653Z,96971.19
2023-02-03T19:52:47.137Z,96972.97
2023-02-03T19:55:17.243Z,97001.06
2023-02-03T19:57:45.598Z,96974.78
2023-02-03T20:00:15.018Z,96979.22
2023-02-03T20:02:44.536Z,97006.56
2023-02-03T20:05:13.232Z,97021.41
2023-02-03T20:07:41.657Z,97016.13
2023-02-03T20:10:11.742Z,96996.22
2023-02-03T20:12:41.724Z,96999.66
2023-02-03T20:15:10.320Z,96995.22
2023-02-03T20:17:38.694Z,96976.00
2023-02-03T20:20:07.658Z,96999.66
2023-02-03T20:22:36.174Z,97010.06
2023-02-03T20:25:05.864Z,97003.00
2023-02-03T20:27:34.277Z,97009.91
2023-02-03T20:30:04.229Z,96992.47
2023-02-03T20:32:32.539Z,97005.50
2023-02-03T20:35:01.012Z,97023.91
2023-02-03T20:37:29.348Z,97010.88
2023-02-03T20:39:57.710Z,97022.22
2023-02-03T20:42:26.171Z,97024.16
2023-02-03T20:44:55.275Z,97008.50
2023-02-03T20:47:25.068Z,97006.72
2023-02-03T20:49:53.748Z,96996.31
2023-02-03T20:52:22.493Z,97031.56
2023-02-03T20:54:51.409Z,97013.31
2023-02-03T20:57:20.640Z,97012.47
2023-02-03T20:59:48.967Z,97037.91
2023-02-03T21:02:22.880Z,97031.00
2023-02-03T21:04:57.763Z,97044.16
2023-02-03T21:07:29.919Z,97042.59
2023-02-03T21:09:59.157Z,97020.72
2023-02-03T21:12:29.226Z,97030.25
2023-02-03T21:14:57.759Z,97036.63
2023-02-03T21:17:27.724Z,97066.50
2023-02-03T21:19:57.676Z,97056.94
2023-02-03T21:22:30.184Z,97024.56
2023-02-03T21:24:59.953Z,97033.16
2023-02-03T21:27:30.582Z,97025.50
2023-02-03T21:30:01.546Z,97015.16
2023-02-03T21:32:37.880Z,97008.22
2023-02-03T21:35:24.069Z,97010.97
2023-02-03T21:37:56.030Z,97012.75
2023-02-03T21:40:27.259Z,97035.44
2023-02-03T21:42:56.050Z,97017.91
2023-02-03T21:45:45.038Z,97009.91
2023-02-03T21:48:36.770Z,97006.28
2023-02-03T21:51:16.116Z,97018.59
2023-02-03T21:53:57.495Z,97031.88
2023-02-03T21:56:30.194Z,97010.25
2023-02-03T21:58:59.864Z,97018.97
2023-02-03T22:01:33.479Z,97037.50
2023-02-03T22:04:03.885Z,97019.09
2023-02-03T22:06:42.098Z,97026.13
2023-02-03T22:09:12.922Z,97029.75
2023-02-03T22:11:41.457Z,97045.50
2023-02-03T22:14:09.828Z,97033.06
2023-02-03T22:16:38.295Z,97023.38
2023-02-03T22:19:06.720Z,97024.47
2023-02-03T22:21:36.033Z,97035.09
2023-02-03T22:24:06.744Z,97033.31
2023-02-03T22:26:35.161Z,97043.00
2023-02-03T22:29:03.573Z,97041.19
2023-02-03T22:31:31.941Z,97037.03
2023-02-03T22:34:00.397Z,97050.41
2023-02-03T22:36:28.767Z,97058.28
2023-02-03T22:39:02.045Z,97047.78
2023-02-03T22:41:31.724Z,97051.25
2023-02-03T22:44:00.077Z,97061.75
2023-02-03T22:46:28.523Z,97053.88
2023-02-03T22:48:57.089Z,97052.19
2023-02-03T22:51:25.432Z,97066.16
2023-02-03T22:53:53.809Z,97065.22
2023-02-03T22:56:23.591Z,97092.22
2023-02-03T22:58:53.389Z,97086.84
2023-02-03T23:01:23.347Z,97117.38
2023-02-03T23:03:52.101Z,97074.53
2023-02-03T23:06:20.774Z,97069.25
2023-02-03T23:08:49.096Z,97061.38
2023-02-03T23:11:17.497Z,97075.34
2023-02-03T23:13:46.253Z,97067.59
2023-02-03T23:16:16.059Z,97068.44
2023-02-03T23:18:44.424Z,97072.13
2023-02-03T23:21:12.828Z,97073.22
2023-02-03T23:23:41.380Z,97089.09
2023-02-03T23:26:09.782Z,97088.66
2023-02-03T23:28:38.147Z,97059.97
2023-02-03T23:31:06.862Z,97075.03
2023-02-03T23:33:36.556Z,97077.03
2023-02-03T23:36:04.281Z,97092.91
2023-02-03T23:38:33.417Z,97101.97
2023-02-03T23:41:02.200Z,97099.13
2023-02-03T23:43:30.512Z,97118.00
2023-02-03T23:45:58.882Z,97109.41
2023-02-03T23:48:27.221Z,97101.75
2023-02-03T23:50:56.922Z,97119.53
2023-02-03T23:53:25.277Z,97113.69
2023-02-03T23:55:53.719Z,97121.69
2023-02-03T23:58:22.146Z,97099.97
